Time;durP1;ratioP1;P1;durP2;ratioP2;P2;SDS_P1;SDS_P2;PMS_P1;PMS_P2;Temp;Humidity;BMP_temperature;BMP_pressure;BME280_temperature;BME280_humidity;BME280_pressure;Samples;Min_cycle;Max_cycle;Signal;HPM_P1;HPM_P2
2022/06/24 00:00:09;;;;;;;35.80;18.40;;;23.20;95.50;;;;;;5073833;28;20532;-69
2022/06/24 00:02:35;;;;;;;30.63;18.50;;;;;;;;;;5073882;28;20043;-70
2022/06/24 00:05:06;;;;;;;34.53;17.08;;;24.50;96.10;;;;;;5073679;28;20040;-70
2022/06/24 00:07:47;;;;;;;31.92;16.50;;;23.30;95.90;;;;;;5073969;28;20370;-70
2022/06/24 00:10:14;;;;;;;43.28;18.27;;;24.30;96.20;;;;;;5073614;28;20043;-70
2022/06/24 00:12:40;;;;;;;31.40;16.92;;;23.50;96.20;;;;;;5073821;28;20036;-70
2022/06/24 00:15:06;;;;;;;30.83;17.88;;;24.40;96.50;;;;;;5073396;28;20489;-70
2022/06/24 00:17:33;;;;;;;33.92;20.02;;;24.00;96.70;;;;;;5073364;28;20036;-70
2022/06/24 00:20:05;;;;;;;36.47;21.85;;;23.70;93.10;;;;;;5073403;28;20032;-70
2022/06/24 00:22:39;;;;;;;37.53;21.15;;;24.10;97.00;;;;;;5073336;28;20527;-69
2022/06/24 00:25:13;;;;;;;34.75;21.48;;;23.90;97.20;;;;;;5073222;28;20049;-70
2022/06/24 00:27:40;;;;;;;34.13;20.83;;;24.10;94.50;;;;;;5073309;28;20052;-70
2022/06/24 00:30:16;;;;;;;35.38;21.15;;;24.10;97.60;;;;;;5073253;28;20557;-70
2022/06/24 00:32:43;;;;;;;31.63;19.02;;;23.80;97.70;;;;;;5073207;28;20048;-70
2022/06/24 00:35:18;;;;;;;34.00;20.33;;;23.10;94.00;;;;;;5056729;28;20052;-69
2022/06/24 00:37:45;;;;;;;38.13;19.38;;;22.10;94.60;;;;;;5073114;28;20036;-70
2022/06/24 00:40:14;;;;;;;29.55;19.73;;;23.80;98.10;;;;;;5072522;28;20147;-70
2022/06/24 00:42:45;;;;;;;33.28;19.55;;;22.60;97.90;;;;;;5073029;28;20051;-70
2022/06/24 00:45:38;;;;;;;37.55;19.58;;;23.60;98.30;;;;;;5072805;28;20041;-70
2022/06/24 00:48:12;;;;;;;31.77;19.83;;;21.80;98.20;;;;;;5073033;28;20493;-70
2022/06/24 00:50:43;;;;;;;40.80;19.98;;;21.90;98.20;;;;;;5056862;28;20052;-70
2022/06/24 00:53:10;;;;;;;38.03;20.70;;;;;;;;;;5072658;28;20044;-70
2022/06/24 00:55:37;;;;;;;37.28;20.80;;;21.50;98.50;;;;;;5072341;28;20084;-70
2022/06/24 00:58:05;;;;;;;36.70;19.92;;;21.50;98.70;;;;;;5072650;28;20048;-70
2022/06/24 01:00:32;;;;;;;43.88;21.00;;;22.70;95.70;;;;;;5056020;28;20040;-70
2022/06/24 01:03:06;;;;;;;40.45;20.60;;;22.60;94.70;;;;;;5072642;28;20178;-70
2022/06/24 01:05:33;;;;;;;37.35;18.98;;;21.60;96.70;;;;;;5055965;28;20044;-70
2022/06/24 01:08:05;;;;;;;32.83;19.60;;;22.40;96.10;;;;;;5072389;28;20115;-70
2022/06/24 01:10:31;;;;;;;36.13;19.55;;;23.10;99.80;;;;;;5072464;28;20056;-70
2022/06/24 01:12:57;;;;;;;35.97;19.17;;;22.40;97.60;;;;;;5072427;28;20036;-70
2022/06/24 01:15:22;;;;;;;36.50;20.42;;;21.40;95.90;;;;;;5072346;28;20037;-70
2022/06/24 01:17:48;;;;;;;38.58;20.23;;;23.10;98.20;;;;;;5072393;28;20040;-70
2022/06/24 01:20:14;;;;;;;34.92;19.17;;;22.80;99.90;;;;;;5072378;28;20037;-70
2022/06/24 01:22:41;;;;;;;35.15;20.17;;;;;;;;;;5072389;28;20037;-70
2022/06/24 01:25:07;;;;;;;32.80;19.30;;;23.00;99.90;;;;;;5072255;28;20388;-70
2022/06/24 01:27:33;;;;;;;40.58;19.98;;;23.00;99.90;;;;;;5055614;28;20050;-70
2022/06/24 01:29:59;;;;;;;33.53;20.90;;;;;;;;;;5072251;28;20044;-70
2022/06/24 01:32:24;;;;;;;35.40;19.17;;;22.60;99.90;;;;;;5072149;28;20098;-70
2022/06/24 01:34:50;;;;;;;38.47;19.70;;;22.60;99.90;;;;;;5072349;28;20036;-70
2022/06/24 01:37:16;;;;;;;32.05;20.30;;;21.70;97.80;;;;;;5072137;28;20489;-70
2022/06/24 01:39:42;;;;;;;35.70;19.58;;;;;;;;;;5055597;28;20033;-70
2022/06/24 01:42:08;;;;;;;33.00;21.52;;;;;;;;;;5071979;28;20036;-70
2022/06/24 01:44:35;;;;;;;33.75;20.80;;;22.20;99.90;;;;;;5071989;28;20044;-70
2022/06/24 01:47:01;;;;;;;40.70;19.67;;;;;;;;;;5072198;28;20041;-70
2022/06/24 01:49:27;;;;;;;35.53;19.70;;;;;;;;;;5071914;28;20044;-70
2022/06/24 01:51:55;;;;;;;36.90;19.77;;;22.60;99.90;;;;;;5071754;28;20040;-70
2022/06/24 01:54:21;;;;;;;36.88;19.95;;;21.70;99.90;;;;;;5071895;28;20041;-70
2022/06/24 01:56:47;;;;;;;29.75;19.52;;;20.50;99.90;;;;;;5071782;28;20053;-71
2022/06/24 01:59:16;;;;;;;29.90;19.20;;;;;;;;;;5038837;28;20131;-70
2022/06/24 02:01:43;;;;;;;45.05;19.33;;;21.50;97.10;;;;;;5071937;28;20068;-70
2022/06/24 02:04:09;;;;;;;25.58;18.40;;;22.30;99.90;;;;;;5055089;28;20044;-70
2022/06/24 02:06:35;;;;;;;35.15;19.30;;;22.60;99.90;;;;;;5071863;28;20044;-70
2022/06/24 02:09:01;;;;;;;35.47;20.10;;;;;;;;;;5055346;28;20048;-70
2022/06/24 02:14:13;;;;;;;31.35;19.67;;;22.20;99.90;;;;;;5071743;28;20054;-70
2022/06/24 02:16:39;;;;;;;34.72;20.98;;;22.30;99.90;;;;;;5071542;28;20044;-70
2022/06/24 02:19:05;;;;;;;31.00;18.92;;;21.60;98.00;;;;;;5071708;28;20070;-70
2022/06/24 02:21:31;;;;;;;34.70;19.42;;;20.70;99.90;;;;;;5055083;28;20044;-70
2022/06/24 02:23:57;;;;;;;32.33;21.33;;;22.70;99.90;;;;;;5071863;28;20035;-70
2022/06/24 02:26:23;;;;;;;32.85;20.58;;;22.30;99.90;;;;;;5071793;28;20037;-70
2022/06/24 02:28:49;;;;;;;30.02;19.80;;;22.20;99.90;;;;;;5071549;28;20080;-70
2022/06/24 02:31:15;;;;;;;35.60;19.50;;;22.00;99.90;;;;;;5071810;28;20040;-70
2022/06/24 02:33:41;;;;;;;36.47;20.40;;;22.40;99.90;;;;;;5055217;28;20050;-70
2022/06/24 02:36:07;;;;;;;33.55;20.02;;;;;;;;;;5071388;28;20044;-70
2022/06/24 02:38:34;;;;;;;32.25;20.35;;;21.20;99.90;;;;;;5054803;28;20033;-70
2022/06/24 02:41:00;;;;;;;31.50;20.38;;;20.60;99.90;;;;;;5071828;28;20497;-70
2022/06/24 02:43:44;;;;;;;30.65;19.35;;;20.70;99.90;;;;;;5054707;28;20040;-70
2022/06/24 02:46:11;;;;;;;26.73;16.00;;;22.00;99.90;;;;;;5071400;28;20564;-70
2022/06/24 02:48:39;;;;;;;28.63;15.68;;;21.60;97.50;;;;;;5071594;28;20125;-70
2022/06/24 02:51:12;;;;;;;25.92;16.13;;;21.80;99.90;;;;;;5071539;28;20052;-70
2022/06/24 02:53:39;;;;;;;31.65;18.55;;;20.80;99.90;;;;;;5071272;28;20873;-72
2022/06/24 02:56:10;;;;;;;28.85;18.40;;;21.00;99.90;;;;;;5054286;28;20535;-73
2022/06/24 02:58:36;;;;;;;39.47;19.35;;;22.60;99.90;;;;;;5054783;28;20040;-72
2022/06/24 03:01:03;;;;;;;31.55;18.13;;;22.50;99.90;;;;;;5054551;28;20119;-72
2022/06/24 03:03:29;;;;;;;34.95;17.58;;;;;;;;;;5057469;28;20044;-73
2022/06/24 03:05:56;;;;;;;25.88;16.55;;;22.40;99.90;;;;;;5074868;28;20124;-72
2022/06/24 03:08:23;;;;;;;27.58;18.08;;;21.00;99.90;;;;;;5074984;28;20076;-72
2022/06/24 03:10:49;;;;;;;29.63;19.10;;;22.10;99.90;;;;;;5076254;28;20115;-72
2022/06/24 03:13:15;;;;;;;30.35;17.65;;;22.10;99.90;;;;;;5074848;28;20044;-72
2022/06/24 03:15:43;;;;;;;26.67;17.92;;;21.60;99.90;;;;;;5074646;28;20123;-72
2022/06/24 03:18:10;;;;;;;22.23;14.65;;;20.30;99.90;;;;;;5074878;28;20080;-72
2022/06/24 03:20:35;;;;;;;27.42;16.20;;;20.40;99.90;;;;;;5057941;28;20036;-72
2022/06/24 03:23:01;;;;;;;28.13;14.57;;;;;;;;;;5074746;28;20095;-72
2022/06/24 03:25:27;;;;;;;24.33;15.02;;;20.90;99.90;;;;;;5058024;28;20097;-72
2022/06/24 03:27:53;;;;;;;24.08;16.48;;;;;;;;;;5074847;28;20415;-72
2022/06/24 03:30:19;;;;;;;38.50;18.25;;;22.00;99.90;;;;;;5074553;28;20045;-72
2022/06/24 03:32:45;;;;;;;27.92;16.05;;;;;;;;;;5074444;28;20047;-72
2022/06/24 03:35:11;;;;;;;24.40;15.55;;;21.50;99.90;;;;;;5074555;28;20044;-72
2022/06/24 03:37:37;;;;;;;25.30;16.15;;;;;;;;;;5074473;28;20501;-72
2022/06/24 03:40:03;;;;;;;25.10;17.70;;;22.40;99.90;;;;;;5074240;28;20111;-72
2022/06/24 03:42:29;;;;;;;33.58;19.67;;;20.40;99.90;;;;;;5074348;28;20485;-72
2022/06/24 03:44:55;;;;;;;32.20;18.45;;;22.00;99.90;;;;;;5074534;28;20045;-72
2022/06/24 03:47:22;;;;;;;32.20;19.02;;;21.40;99.90;;;;;;5074187;28;20045;-72
2022/06/24 03:49:47;;;;;;;31.40;17.55;;;20.50;99.70;;;;;;5057492;28;20119;-72
2022/06/24 03:52:13;;;;;;;30.17;19.15;;;;;;;;;;5074246;28;20124;-72
2022/06/24 03:54:39;;;;;;;28.55;17.52;;;21.80;98.90;;;;;;5073659;28;20053;-72
2022/06/24 03:57:05;;;;;;;31.83;18.45;;;22.20;99.90;;;;;;5073920;28;20044;-73
2022/06/24 03:59:31;;;;;;;37.03;21.42;;;20.70;99.90;;;;;;5073937;28;20508;-73
2022/06/24 04:01:57;;;;;;;36.13;19.95;;;20.50;99.90;;;;;;5073941;28;20072;-73
2022/06/24 04:04:23;;;;;;;33.78;19.80;;;21.50;99.90;;;;;;5057418;28;20384;-73
2022/06/24 04:06:49;;;;;;;32.90;18.95;;;;;;;;;;5074003;28;20041;-73
2022/06/24 04:09:15;;;;;;;32.85;21.05;;;21.50;99.90;;;;;;5073741;28;20048;-73
2022/06/24 04:11:41;;;;;;;39.88;23.30;;;;;;;;;;5073953;28;20046;-73
2022/06/24 04:14:07;;;;;;;42.72;23.20;;;22.20;99.90;;;;;;5057062;28;20051;-73
2022/06/24 04:16:33;;;;;;;40.28;23.75;;;22.20;99.90;;;;;;5073515;28;20036;-73
2022/06/24 04:18:59;;;;;;;45.22;23.70;;;22.20;99.90;;;;;;5073559;28;20080;-73
2022/06/24 04:21:25;;;;;;;38.83;22.15;;;22.10;99.90;;;;;;5056887;28;20040;-73
2022/06/24 04:23:51;;;;;;;40.00;22.15;;;20.30;99.90;;;;;;5073495;28;20043;-73
2022/06/24 04:26:18;;;;;;;41.08;19.33;;;21.20;99.50;;;;;;5056755;28;20134;-73
2022/06/24 04:28:45;;;;;;;35.35;16.33;;;21.80;99.90;;;;;;5073960;28;20098;-73
2022/06/24 04:31:11;;;;;;;48.78;12.57;;;22.10;99.90;;;;;;5073522;28;20517;-74
2022/06/24 04:33:37;;;;;;;47.45;15.13;;;22.10;99.90;;;;;;5074528;28;20177;-73
2022/06/24 04:36:09;;;;;;;44.28;12.07;;;20.10;99.90;;;;;;5073073;28;20045;-73
2022/06/24 04:38:35;;;;;;;36.88;10.43;;;20.50;99.90;;;;;;5073141;28;20037;-73
2022/06/24 04:41:00;;;;;;;25.70;7.80;;;20.30;99.90;;;;;;5056648;28;20059;-74
2022/06/24 04:43:26;;;;;;;16.30;5.93;;;;;;;;;;5072983;28;20401;-73
2022/06/24 04:45:52;;;;;;;16.40;6.55;;;21.30;99.90;;;;;;5073258;28;20373;-73
2022/06/24 04:48:18;;;;;;;17.85;6.10;;;19.60;99.90;;;;;;5074206;28;20043;-73
2022/06/24 04:50:43;;;;;;;12.30;5.15;;;21.10;99.90;;;;;;5056164;28;20472;-73
2022/06/24 04:53:09;;;;;;;14.60;6.25;;;21.30;99.90;;;;;;5072903;28;20047;-74
2022/06/24 04:55:35;;;;;;;14.77;5.68;;;20.30;99.90;;;;;;5073132;28;20055;-74
2022/06/24 04:58:01;;;;;;;17.77;6.05;;;;;;;;;;5039549;28;20437;-74
2022/06/24 05:00:27;;;;;;;16.40;6.95;;;21.30;99.90;;;;;;5072930;28;20090;-74
2022/06/24 05:02:52;;;;;;;15.90;6.40;;;19.20;99.90;;;;;;5072811;28;20044;-74
2022/06/24 05:05:18;;;;;;;13.07;5.90;;;21.20;99.90;;;;;;5056173;28;20037;-75
2022/06/24 05:07:44;;;;;;;14.60;6.28;;;;;;;;;;5072879;28;20044;-74
2022/06/24 05:10:10;;;;;;;15.77;6.43;;;;;;;;;;5072605;28;20055;-74
2022/06/24 05:12:36;;;;;;;13.43;5.63;;;;;;;;;;5039380;28;20123;-73
2022/06/24 05:15:02;;;;;;;18.80;5.50;;;;;;;;;;5072319;28;20040;-73
2022/06/24 05:17:28;;;;;;;12.32;5.47;;;21.10;99.90;;;;;;5072243;28;20043;-73
2022/06/24 05:19:54;;;;;;;18.55;5.90;;;;;;;;;;5055779;28;20048;-72
2022/06/24 05:22:20;;;;;;;15.68;5.75;;;21.30;99.90;;;;;;5055748;28;20500;-73
2022/06/24 05:24:46;;;;;;;17.17;6.72;;;20.20;99.90;;;;;;5072130;28;20040;-73
2022/06/24 05:27:12;;;;;;;16.10;5.47;;;;;;;;;;5055457;28;20086;-74
2022/06/24 05:29:38;;;;;;;23.30;6.20;;;21.00;99.90;;;;;;5055669;28;20135;-73
2022/06/24 05:32:04;;;;;;;24.02;7.40;;;21.10;99.90;;;;;;5055875;28;20127;-72
2022/06/24 05:34:30;;;;;;;13.10;6.30;;;19.50;99.90;;;;;;5072097;28;20090;-72
2022/06/24 05:36:56;;;;;;;18.15;6.35;;;;;;;;;;5072148;28;20044;-72
2022/06/24 05:39:22;;;;;;;17.23;6.10;;;20.40;99.90;;;;;;5055530;28;20583;-72
2022/06/24 05:41:48;;;;;;;17.48;6.00;;;;;;;;;;5072418;28;20123;-72
2022/06/24 05:44:13;;;;;;;14.30;5.70;;;20.90;99.90;;;;;;5072105;28;20047;-73
2022/06/24 05:46:40;;;;;;;14.25;5.88;;;;;;;;;;5071967;28;20040;-72
2022/06/24 05:49:06;;;;;;;15.30;5.22;;;19.20;99.90;;;;;;5071986;28;20571;-72
2022/06/24 05:51:35;;;;;;;10.77;4.20;;;19.00;99.90;;;;;;5072302;28;20444;-73
2022/06/24 05:56:45;;;;;;;19.27;5.53;;;21.00;99.90;;;;;;5071554;28;20052;-73
2022/06/24 05:59:11;;;;;;;13.15;4.45;;;19.90;99.90;;;;;;5071756;28;20102;-73
2022/06/24 06:01:37;;;;;;;14.98;4.47;;;20.10;99.90;;;;;;5055181;28;20036;-73
2022/06/24 06:04:03;;;;;;;13.02;4.55;;;18.90;99.90;;;;;;5071936;28;20049;-73
2022/06/24 06:06:29;;;;;;;20.13;4.70;;;;;;;;;;5055410;28;20044;-73
2022/06/24 06:08:57;;;;;;;18.50;4.90;;;20.80;99.90;;;;;;5055317;28;20040;-73
2022/06/24 06:11:25;;;;;;;22.35;6.18;;;19.60;99.90;;;;;;5071941;28;20115;-73
2022/06/24 06:13:53;;;;;;;19.30;5.45;;;19.90;99.90;;;;;;5072631;28;20045;-74
2022/06/24 06:16:20;;;;;;;17.45;5.45;;;20.50;99.90;;;;;;5071536;28;20124;-73
2022/06/24 06:18:47;;;;;;;20.63;5.53;;;19.70;99.90;;;;;;5071992;28;20369;-73
2022/06/24 06:21:12;;;;;;;17.90;5.18;;;20.40;99.90;;;;;;5073000;28;20047;-73
2022/06/24 06:23:40;;;;;;;19.98;6.00;;;19.70;99.90;;;;;;5071729;28;20040;-73
2022/06/24 06:26:07;;;;;;;15.27;5.43;;;19.80;99.90;;;;;;5071432;28;20507;-73
2022/06/24 06:28:33;;;;;;;17.30;6.05;;;19.20;99.90;;;;;;5055042;28;20055;-73
2022/06/24 06:30:59;;;;;;;23.00;5.55;;;20.30;99.90;;;;;;5071472;28;20396;-73
2022/06/24 06:33:25;;;;;;;18.42;6.45;;;19.40;99.90;;;;;;5071563;28;20051;-73
2022/06/24 06:35:51;;;;;;;16.52;7.28;;;19.60;99.90;;;;;;5071397;28;20078;-73
2022/06/24 06:38:17;;;;;;;16.92;7.20;;;19.90;99.90;;;;;;5057005;28;20041;-73
2022/06/24 06:40:43;;;;;;;17.42;7.88;;;19.00;99.90;;;;;;5075361;28;20043;-72
2022/06/24 06:43:09;;;;;;;13.55;7.35;;;19.50;99.90;;;;;;5075312;28;20610;-73
2022/06/24 06:45:38;;;;;;;16.23;8.45;;;20.60;99.90;;;;;;5075289;28;20154;-73
2022/06/24 06:48:04;;;;;;;15.80;8.75;;;19.30;99.90;;;;;;5042129;28;20044;-73
2022/06/24 06:50:31;;;;;;;16.95;8.75;;;18.50;99.90;;;;;;5075597;28;20431;-73
2022/06/24 06:52:57;;;;;;;15.57;9.18;;;19.60;99.90;;;;;;5076457;28;20048;-73
2022/06/24 06:55:23;;;;;;;19.40;8.70;;;18.70;99.90;;;;;;5074765;28;20058;-73
2022/06/24 06:57:50;;;;;;;17.15;8.38;;;;;;;;;;5075072;28;20189;-73
2022/06/24 07:00:17;;;;;;;16.67;9.00;;;20.00;99.90;;;;;;5075228;28;20127;-74
2022/06/24 07:02:43;;;;;;;23.33;8.75;;;;;;;;;;5074947;28;20044;-73
2022/06/24 07:05:09;;;;;;;17.58;8.90;;;;;;;;;;5075063;28;20044;-73
2022/06/24 07:07:35;;;;;;;19.80;8.75;;;;;;;;;;5075684;28;20516;-73
2022/06/24 07:10:01;;;;;;;16.77;8.73;;;18.90;99.90;;;;;;5075099;28;20075;-76
2022/06/24 07:12:27;;;;;;;17.48;8.82;;;;;;;;;;5074828;28;20404;-73
2022/06/24 07:14:53;;;;;;;17.92;8.95;;;20.00;99.90;;;;;;5074752;28;20045;-73
2022/06/24 07:17:19;;;;;;;14.80;9.13;;;20.30;99.90;;;;;;5057932;28;20109;-73
2022/06/24 07:19:46;;;;;;;15.30;9.05;;;19.30;99.90;;;;;;5074971;28;20068;-73
2022/06/24 07:22:13;;;;;;;13.57;8.35;;;20.60;99.90;;;;;;5074612;28;20040;-73
2022/06/24 07:24:39;;;;;;;15.60;9.00;;;20.80;99.90;;;;;;5074417;28;20480;-73
2022/06/24 07:27:07;;;;;;;14.52;8.52;;;19.80;99.90;;;;;;5074447;28;20483;-73
2022/06/24 07:29:34;;;;;;;14.15;8.73;;;20.10;99.90;;;;;;5074437;28;20078;-74
2022/06/24 07:32:04;;;;;;;14.57;8.85;;;20.00;99.90;;;;;;5074447;28;20174;-73
2022/06/24 07:34:33;;;;;;;15.13;8.60;;;19.10;99.90;;;;;;5057697;28;20484;-74
2022/06/24 07:37:00;;;;;;;15.10;9.13;;;20.70;99.90;;;;;;5057582;28;20127;-73
2022/06/24 07:39:26;;;;;;;17.10;10.55;;;20.00;99.90;;;;;;5074582;28;20431;-74
2022/06/24 07:41:53;;;;;;;14.07;8.88;;;20.80;99.90;;;;;;5074327;28;20475;-74
2022/06/24 07:44:19;;;;;;;12.07;9.05;;;19.50;99.90;;;;;;5074373;28;20072;-73
2022/06/24 07:46:45;;;;;;;15.70;9.52;;;20.40;99.90;;;;;;5074319;28;20047;-74
2022/06/24 07:49:10;;;;;;;13.95;8.82;;;20.60;99.90;;;;;;5073838;28;20049;-73
2022/06/24 07:51:36;;;;;;;12.73;9.10;;;;;;;;;;5074113;28;20174;-73
2022/06/24 07:54:05;;;;;;;16.52;8.77;;;20.40;99.90;;;;;;5057325;28;20519;-74
2022/06/24 07:59:16;;;;;;;17.80;9.20;;;;;;;;;;5074049;28;20106;-74
2022/06/24 08:01:42;;;;;;;14.45;9.27;;;20.20;99.90;;;;;;5057173;28;20521;-70
2022/06/24 08:04:08;;;;;;;15.07;8.70;;;19.30;99.90;;;;;;5057434;28;20135;-70
2022/06/24 08:06:35;;;;;;;18.08;9.23;;;20.10;99.90;;;;;;5057188;28;20049;-70
2022/06/24 08:09:02;;;;;;;13.25;9.38;;;21.00;99.90;;;;;;5057451;28;20098;-70
2022/06/24 08:11:28;;;;;;;17.95;10.68;;;20.30;99.90;;;;;;5073678;28;20081;-70
2022/06/24 08:13:54;;;;;;;16.92;10.02;;;20.70;99.90;;;;;;5073681;28;20040;-70
2022/06/24 08:16:21;;;;;;;15.98;9.73;;;;;;;;;;5073377;28;20049;-70
2022/06/24 08:18:47;;;;;;;18.35;10.02;;;20.40;99.90;;;;;;5073802;28;20051;-70
2022/06/24 08:21:13;;;;;;;14.35;9.23;;;20.10;99.90;;;;;;5073372;28;20041;-70
2022/06/24 08:23:39;;;;;;;16.60;10.20;;;;;;;;;;5073447;28;20071;-70
2022/06/24 08:26:05;;;;;;;15.75;9.30;;;20.70;99.90;;;;;;5073339;28;20546;-70
2022/06/24 08:28:31;;;;;;;10.48;8.20;;;21.20;99.90;;;;;;5073604;28;20394;-70
2022/06/24 08:30:57;;;;;;;16.83;9.43;;;21.00;99.90;;;;;;5073588;28;20041;-70
2022/06/24 08:33:23;;;;;;;11.43;8.32;;;19.40;99.90;;;;;;5056685;28;20086;-70
2022/06/24 08:35:49;;;;;;;14.20;9.45;;;20.20;99.90;;;;;;5074424;28;20088;-70
2022/06/24 08:38:17;;;;;;;14.57;8.82;;;20.30;99.90;;;;;;5057095;28;20385;-70
2022/06/24 08:40:47;;;;;;;20.20;9.80;;;20.70;99.90;;;;;;5073185;28;20079;-70
2022/06/24 08:43:13;;;;;;;13.63;8.70;;;20.60;99.90;;;;;;5073465;28;20365;-70
2022/06/24 08:45:39;;;;;;;15.38;9.23;;;21.10;99.90;;;;;;5056455;28;20507;-70
2022/06/24 08:48:09;;;;;;;14.60;7.65;;;18.90;99.90;;;;;;5072941;28;20516;-70
2022/06/24 08:50:35;;;;;;;15.82;7.05;;;20.50;99.90;;;;;;5072977;28;20044;-70
2022/06/24 08:53:06;;;;;;;11.68;7.18;;;20.20;99.90;;;;;;5073220;28;20042;-70
2022/06/24 08:55:36;;;;;;;15.30;7.43;;;20.00;99.90;;;;;;5072573;28;20060;-70
2022/06/24 08:58:12;;;;;;;16.92;7.78;;;18.50;99.90;;;;;;5072664;28;20050;-70
2022/06/24 09:00:39;;;;;;;15.20;7.57;;;19.70;99.90;;;;;;5072220;28;20048;-70
2022/06/24 09:03:06;;;;;;;14.20;7.20;;;19.70;99.90;;;;;;5072611;28;20043;-70
2022/06/24 09:05:32;;;;;;;14.43;7.70;;;19.40;99.90;;;;;;5072879;28;20139;-70
2022/06/24 09:08:10;;;;;;;15.20;8.15;;;19.00;99.90;;;;;;5072475;28;20053;-70
2022/06/24 09:10:39;;;;;;;14.93;7.40;;;19.70;99.90;;;;;;5072779;28;20431;-70
2022/06/24 09:13:05;;;;;;;11.13;6.90;;;;;;;;;;5072491;28;20047;-70
2022/06/24 09:15:32;;;;;;;12.35;6.13;;;19.60;99.90;;;;;;5072361;28;20036;-70
2022/06/24 09:17:59;;;;;;;15.18;6.82;;;20.40;99.90;;;;;;5072750;28;20040;-70
2022/06/24 09:20:29;;;;;;;12.02;6.30;;;19.50;99.90;;;;;;5072324;28;20499;-70
2022/06/24 09:23:09;;;;;;;12.32;6.68;;;19.40;99.90;;;;;;5072310;28;20503;-70
2022/06/24 09:25:47;;;;;;;13.50;6.88;;;18.50;99.90;;;;;;5072584;28;20048;-70
2022/06/24 09:28:24;;;;;;;12.02;6.55;;;18.10;99.90;;;;;;5072560;28;20384;-70
2022/06/24 09:30:58;;;;;;;9.23;5.57;;;20.20;99.90;;;;;;5072232;28;20127;-70
2022/06/24 09:33:24;;;;;;;8.18;5.18;;;;;;;;;;5055512;28;20040;-69
2022/06/24 09:36:00;;;;;;;11.93;5.72;;;19.40;99.90;;;;;;5072104;28;20064;-70
2022/06/24 09:38:26;;;;;;;11.55;5.10;;;19.50;99.90;;;;;;5055400;28;20496;-70
2022/06/24 09:41:00;;;;;;;9.77;4.75;;;19.40;99.90;;;;;;5072082;28;20041;-70
2022/06/24 09:43:32;;;;;;;12.52;5.10;;;19.20;99.90;;;;;;5072106;28;20048;-70
2022/06/24 09:46:00;;;;;;;11.98;4.70;;;20.20;99.90;;;;;;5071994;28;20075;-70
2022/06/24 09:48:34;;;;;;;6.22;3.63;;;20.40;99.90;;;;;;5055453;28;20123;-69
2022/06/24 09:51:02;;;;;;;6.93;4.03;;;19.20;99.90;;;;;;5072045;28;20174;-70
2022/06/24 09:53:29;;;;;;;7.47;4.05;;;19.90;99.90;;;;;;5072364;28;20127;-70
2022/06/24 09:55:55;;;;;;;5.30;3.50;;;19.50;99.90;;;;;;5071748;28;20408;-69
2022/06/24 09:58:22;;;;;;;5.78;4.07;;;19.20;99.90;;;;;;5072174;28;20490;-69
2022/06/24 10:00:49;;;;;;;6.40;3.65;;;18.40;99.90;;;;;;5072194;28;20052;-69
2022/06/24 10:03:15;;;;;;;9.13;3.80;;;18.40;99.90;;;;;;5072115;28;20385;-69
2022/06/24 10:05:44;;;;;;;12.00;3.90;;;19.40;99.90;;;;;;5055098;28;20071;-69
2022/06/24 10:08:17;;;;;;;11.18;3.70;;;19.50;99.90;;;;;;5071778;28;20045;-69
2022/06/24 10:10:47;;;;;;;11.32;5.22;;;18.20;99.90;;;;;;5055019;28;20048;-69
2022/06/24 10:13:23;;;;;;;7.70;4.00;;;18.70;99.90;;;;;;5075643;28;20041;-69
2022/06/24 10:15:50;;;;;;;10.93;4.25;;;18.20;99.90;;;;;;5075941;28;20064;-69
2022/06/24 10:18:19;;;;;;;7.80;4.28;;;19.30;99.90;;;;;;5075909;28;20048;-69
2022/06/24 10:20:46;;;;;;;8.63;4.82;;;19.90;99.90;;;;;;5075810;28;20098;-69
2022/06/24 10:23:39;;;;;;;9.10;5.55;;;19.60;99.90;;;;;;5075852;28;20055;-69
2022/06/24 10:26:10;;;;;;;12.98;5.60;;;18.30;99.90;;;;;;5075889;28;20044;-69
2022/06/24 10:29:04;;;;;;;8.45;5.28;;;19.60;99.90;;;;;;5075526;28;20040;-69
2022/06/24 10:31:45;;;;;;;14.07;5.68;;;18.50;99.90;;;;;;5076239;28;20045;-69
2022/06/24 10:34:11;;;;;;;13.40;6.10;;;;;;;;;;5075683;28;20384;-69
2022/06/24 10:36:36;;;;;;;17.35;7.90;;;18.50;99.90;;;;;;5075357;28;20515;-69
2022/06/24 10:39:10;;;;;;;17.80;8.55;;;18.40;99.90;;;;;;5075651;28;20037;-69
2022/06/24 10:41:37;;;;;;;17.55;9.30;;;18.70;99.90;;;;;;5075648;28;20106;-69
2022/06/24 10:44:25;;;;;;;19.10;10.90;;;19.00;99.90;;;;;;5075266;28;20072;-69
2022/06/24 10:47:08;;;;;;;19.48;11.55;;;19.70;99.90;;;;;;5074932;28;20412;-69
2022/06/24 10:49:54;;;;;;;18.15;12.02;;;19.90;99.90;;;;;;5075186;28;20048;-69
2022/06/24 10:52:32;;;;;;;24.25;13.23;;;19.50;99.90;;;;;;5075092;28;20123;-69
2022/06/24 10:55:28;;;;;;;22.65;13.00;;;19.70;99.90;;;;;;5074797;28;20128;-69
2022/06/24 10:58:00;;;;;;;20.48;14.05;;;19.60;99.90;;;;;;5074978;28;20078;-70
2022/06/24 11:00:51;;;;;;;21.25;14.88;;;19.40;99.90;;;;;;5075257;28;20067;-69
2022/06/24 11:03:39;;;;;;;26.00;14.85;;;18.80;99.90;;;;;;5058419;28;20040;-69
2022/06/24 11:06:07;;;;;;;20.85;14.63;;;19.90;99.90;;;;;;5075213;28;20109;-70
2022/06/24 11:08:36;;;;;;;29.98;17.02;;;20.00;99.90;;;;;;5075148;28;20385;-69
2022/06/24 11:11:05;;;;;;;28.33;17.35;;;;;;;;;;5074910;28;20074;-69
2022/06/24 11:13:31;;;;;;;26.15;16.60;;;;;;;;;;5075116;28;20051;-69
2022/06/24 11:15:59;;;;;;;27.80;16.83;;;19.70;99.90;;;;;;5074523;28;20041;-69
2022/06/24 11:18:25;;;;;;;25.58;15.95;;;;;;;;;;5074548;28;20048;-69
2022/06/24 11:21:00;;;;;;;26.35;15.70;;;21.10;99.90;;;;;;5074609;28;20040;-69
2022/06/24 11:23:29;;;;;;;31.23;15.38;;;20.70;99.90;;;;;;5073980;28;20048;-69
2022/06/24 11:26:03;;;;;;;25.38;14.80;;;21.10;99.90;;;;;;5074632;28;20048;-69
2022/06/24 11:28:30;;;;;;;24.50;14.65;;;20.10;99.90;;;;;;5074842;28;20511;-70
2022/06/24 11:31:38;;;;;;;26.30;14.40;;;21.30;99.90;;;;;;5057878;28;20123;-69
2022/06/24 11:34:04;;;;;;;23.88;14.57;;;20.00;99.90;;;;;;5073257;28;20051;-69
2022/06/24 11:36:33;;;;;;;29.60;13.95;;;20.60;99.90;;;;;;5057681;28;20041;-69
2022/06/24 11:39:03;;;;;;;23.65;13.77;;;20.30;99.90;;;;;;5075885;28;20044;-69
2022/06/24 11:41:31;;;;;;;24.05;13.85;;;19.70;99.90;;;;;;5074292;28;20388;-69
2022/06/24 11:43:57;;;;;;;21.40;14.48;;;21.40;99.90;;;;;;5074286;28;20039;-69
2022/06/24 11:46:23;;;;;;;24.05;14.73;;;;;;;;;;5074245;28;20051;-69
2022/06/24 11:48:50;;;;;;;19.05;13.32;;;;;;;;;;5057431;28;20072;-69
2022/06/24 11:51:19;;;;;;;26.95;14.50;;;21.40;99.90;;;;;;5074054;28;20040;-69
2022/06/24 11:53:59;;;;;;;21.02;13.93;;;21.30;99.90;;;;;;5074178;28;20040;-69
2022/06/24 11:56:28;;;;;;;22.95;14.70;;;21.40;99.90;;;;;;5073856;28;20056;-69
2022/06/24 11:58:59;;;;;;;21.58;14.25;;;21.40;99.90;;;;;;5074468;28;20115;-70
2022/06/24 12:01:27;;;;;;;24.48;15.40;;;19.70;99.90;;;;;;5074202;28;20049;-69
2022/06/24 12:03:56;;;;;;;27.67;15.10;;;20.80;99.90;;;;;;5073879;28;20043;-69
2022/06/24 12:06:23;;;;;;;26.45;15.82;;;21.30;99.90;;;;;;5073778;28;20511;-69
2022/06/24 12:08:49;;;;;;;26.25;16.15;;;21.40;99.90;;;;;;5073845;28;20546;-69
2022/06/24 12:11:17;;;;;;;30.65;15.93;;;19.90;99.90;;;;;;5057063;28;20123;-69
2022/06/24 12:13:59;;;;;;;28.23;18.40;;;20.80;99.90;;;;;;5073696;28;20079;-69
2022/06/24 12:16:26;;;;;;;28.48;19.70;;;21.00;99.90;;;;;;5073678;28;20157;-69
2022/06/24 12:18:51;;;;;;;31.38;17.80;;;21.50;99.90;;;;;;5040316;28;20085;-69
2022/06/24 12:21:26;;;;;;;36.22;19.92;;;21.70;99.90;;;;;;5073650;28;20127;-69
2022/06/24 12:23:52;;;;;;;27.95;19.98;;;20.60;99.90;;;;;;5073875;28;20035;-69
2022/06/24 12:26:20;;;;;;;32.00;19.08;;;21.10;99.90;;;;;;5073529;28;20493;-69
2022/06/24 12:29:04;;;;;;;34.30;22.00;;;22.10;99.90;;;;;;5073713;28;20052;-71
2022/06/24 12:31:31;;;;;;;26.80;20.38;;;21.50;99.90;;;;;;5056858;28;20048;-70
2022/06/24 12:33:57;;;;;;;31.80;22.27;;;22.00;99.90;;;;;;5073832;28;20507;-71
2022/06/24 12:36:41;;;;;;;38.38;23.60;;;20.60;99.90;;;;;;5072155;28;20573;-71
2022/06/24 12:39:09;;;;;;;31.98;21.65;;;21.30;99.90;;;;;;5073186;28;20085;-71
2022/06/24 12:41:46;;;;;;;34.22;23.35;;;21.80;99.90;;;;;;5056852;28;20435;-69
2022/06/24 12:44:13;;;;;;;34.53;23.88;;;20.20;99.90;;;;;;5073225;28;20496;-69
2022/06/24 12:52:10;;;;;;;41.35;25.50;;;21.50;99.90;;;;;;5073056;28;20055;-73
2022/06/24 12:54:36;;;;;;;34.80;26.08;;;;;;;;;;5072865;28;20044;-73
2022/06/24 12:57:02;;;;;;;30.38;23.98;;;;;;;;;;5056356;28;20059;-73
2022/06/24 12:59:30;;;;;;;33.08;23.85;;;21.20;99.90;;;;;;5073186;28;20048;-73
2022/06/24 13:01:56;;;;;;;35.85;23.80;;;21.50;99.90;;;;;;5072819;28;20044;-73
2022/06/24 13:04:22;;;;;;;33.45;24.33;;;;;;;;;;5072662;28;20037;-73
2022/06/24 13:06:48;;;;;;;31.70;21.63;;;21.80;99.90;;;;;;5072708;28;20044;-73